KMPZ/MPZ METAR and TAF weather

Enter ICAO airport designator
Station Type Date Time Source
KMPZ METAR 2024/05/28 21:55 UTC NOAA

KMPZ 282155Z AUTO 31013G25KT 10SM CLR 22/08 A3008 RMK AO2


Station Type Date Time Source
KMPZ Decoded METAR 2024/05/28 21:55 UTC NOAA

Mount Pleasant, Mount Pleasant Municipal Airport, IA, United States (KMPZ) 40-56-48N 091-30-40W
May 28, 2024 - 05:55 PM EDT / 2024.05.28 2155 UTC
Wind: from the NW (310 degrees) at 15 MPH (13 KT) gusting to 29 MPH (25 KT):0
Visibility: 10 mile(s):0
Sky conditions: clear
Temperature: 71 F (22 C)
Dew Point: 46 F (8 C)
Relative Humidity: 40%
Pressure (altimeter): 30.08 in. Hg (1018 hPa)
ob: KMPZ 282155Z AUTO 31013G25KT 10SM CLR 22/08 A3008 RMK AO2
cycle: 22

Station Type Date Time Source
KMPZ TAF UTC NOAA

Error!

Example: see airport list